createdAt,value
2022-08-25T00:00:05.664Z,9.20
2022-08-25T00:00:45.329Z,9.40
2022-08-25T00:01:27.061Z,10.60
2022-08-25T00:02:08.189Z,10.50
2022-08-25T00:02:48.506Z,10.50
2022-08-25T00:03:28.994Z,11.00
2022-08-25T00:04:11.920Z,11.00
2022-08-25T00:04:53.585Z,9.50
2022-08-25T00:05:32.345Z,8.70
2022-08-25T00:06:07.525Z,9.40
2022-08-25T00:06:43.484Z,9.80
2022-08-25T00:07:18.661Z,9.00
2022-08-25T00:07:51.992Z,10.40
2022-08-25T00:08:25.106Z,9.50
2022-08-25T00:09:00.061Z,10.90
2022-08-25T00:09:35.312Z,10.00
2022-08-25T00:10:09.523Z,9.90
2022-08-25T00:10:42.968Z,10.40
2022-08-25T00:11:30.446Z,10.00
2022-08-25T00:12:06.250Z,9.70
2022-08-25T00:12:39.463Z,10.40
2022-08-25T00:13:12.925Z,11.30
2022-08-25T00:13:52.944Z,9.80
2022-08-25T00:14:33.706Z,10.20
2022-08-25T00:15:40.840Z,9.60
2022-08-25T00:16:16.955Z,9.40
2022-08-25T00:16:50.794Z,9.90
2022-08-25T00:17:23.868Z,9.40
2022-08-25T00:17:57.583Z,9.90
2022-08-25T00:18:30.736Z,10.00
2022-08-25T00:19:11.847Z,11.10
2022-08-25T00:19:45.455Z,9.80
2022-08-25T00:20:19.170Z,9.70
2022-08-25T00:20:52.645Z,8.90
2022-08-25T00:21:26.864Z,9.30
2022-08-25T00:22:01.814Z,9.00
2022-08-25T00:22:35.055Z,10.40
2022-08-25T00:23:08.208Z,9.10
2022-08-25T00:23:42.695Z,10.50
2022-08-25T00:24:19.805Z,10.00
2022-08-25T00:24:53.248Z,9.20
2022-08-25T00:25:27.244Z,9.80
2022-08-25T00:26:02.746Z,9.70
2022-08-25T00:26:40.094Z,10.00
2022-08-25T00:27:13.282Z,10.10
2022-08-25T00:27:47.640Z,9.00
2022-08-25T00:28:21.462Z,9.80
2022-08-25T00:29:01.681Z,8.60
2022-08-25T00:30:12.318Z,9.10
2022-08-25T00:30:49.884Z,8.90
2022-08-25T00:31:37.707Z,9.70
2022-08-25T00:32:13.103Z,9.70
2022-08-25T00:32:51.453Z,10.00
2022-08-25T00:33:33.959Z,8.60
2022-08-25T00:34:10.079Z,9.60
2022-08-25T00:34:43.332Z,9.50
2022-08-25T00:35:16.728Z,9.70
2022-08-25T00:35:50.741Z,8.20
2022-08-25T00:36:23.832Z,10.00
2022-08-25T00:36:57.018Z,8.50
2022-08-25T00:37:30.170Z,9.10
2022-08-25T00:38:04.088Z,9.40
2022-08-25T00:38:38.442Z,10.50
2022-08-25T00:39:12.212Z,9.10
2022-08-25T00:39:46.109Z,9.60
2022-08-25T00:40:20.545Z,8.60
2022-08-25T00:41:06.460Z,9.30
2022-08-25T00:41:42.624Z,8.60
2022-08-25T00:42:16.230Z,8.10
2022-08-25T00:42:49.624Z,7.70
2022-08-25T00:43:23.373Z,10.20
2022-08-25T00:43:59.909Z,8.90
2022-08-25T00:44:34.399Z,8.60
2022-08-25T00:45:09.840Z,9.50
2022-08-25T00:45:43.179Z,9.30
2022-08-25T00:46:21.102Z,9.30
2022-08-25T00:46:57.963Z,8.80
2022-08-25T00:47:31.438Z,9.20
2022-08-25T00:48:05.216Z,9.30
2022-08-25T00:48:42.670Z,9.50
2022-08-25T00:49:24.947Z,8.80
2022-08-25T00:50:02.302Z,9.80
2022-08-25T00:50:35.489Z,10.30
2022-08-25T00:51:12.035Z,9.00
2022-08-25T00:51:49.866Z,9.70
2022-08-25T00:52:28.549Z,8.50
2022-08-25T00:53:04.578Z,9.50
2022-08-25T00:53:39.631Z,8.80
2022-08-25T00:54:23.179Z,8.80
2022-08-25T00:55:08.075Z,8.20
2022-08-25T00:55:41.950Z,9.10
2022-08-25T00:56:15.362Z,8.90
2022-08-25T00:56:52.364Z,8.40
2022-08-25T00:57:34.061Z,9.20
2022-08-25T00:58:20.560Z,8.70
2022-08-25T00:58:53.917Z,8.80
2022-08-25T00:59:28.135Z,8.80
2022-08-25T01:00:02.304Z,8.50
2022-08-25T01:00:39.817Z,10.20
2022-08-25T01:01:12.981Z,8.90
2022-08-25T01:01:46.437Z,9.20
2022-08-25T01:02:19.795Z,9.70
2022-08-25T01:02:53.017Z,8.60
2022-08-25T01:03:33.000Z,9.40
2022-08-25T01:04:08.693Z,10.20
2022-08-25T01:04:49.132Z,11.70
2022-08-25T01:05:57.328Z,12.30
2022-08-25T01:06:36.436Z,11.10
2022-08-25T01:07:13.822Z,11.10
2022-08-25T01:07:52.637Z,10.20
2022-08-25T01:08:33.501Z,11.10
2022-08-25T01:09:07.750Z,9.90
2022-08-25T01:09:42.781Z,10.70
2022-08-25T01:10:18.935Z,9.90
2022-08-25T01:10:52.564Z,10.40
2022-08-25T01:11:27.068Z,10.80
2022-08-25T01:12:01.718Z,9.60
2022-08-25T01:12:37.623Z,11.60
2022-08-25T01:13:20.009Z,10.60
2022-08-25T01:13:56.164Z,10.60
2022-08-25T01:14:31.772Z,9.80
2022-08-25T01:15:07.076Z,9.50
2022-08-25T01:15:41.949Z,9.40
2022-08-25T01:16:16.646Z,9.70
2022-08-25T01:16:51.030Z,11.40
2022-08-25T01:17:35.182Z,10.20
2022-08-25T01:18:09.082Z,10.40
2022-08-25T01:18:51.461Z,8.70
2022-08-25T01:19:26.520Z,9.60
2022-08-25T01:19:59.678Z,9.30
2022-08-25T01:20:35.133Z,11.00
2022-08-25T01:21:08.278Z,10.50
2022-08-25T01:21:51.051Z,10.80
2022-08-25T01:22:26.940Z,10.90
2022-08-25T01:23:01.031Z,10.30
2022-08-25T01:23:34.500Z,9.70
2022-08-25T01:24:14.567Z,9.70
2022-08-25T01:24:57.288Z,12.00
2022-08-25T01:25:57.547Z,11.20
2022-08-25T01:26:33.799Z,12.00
2022-08-25T01:27:08.109Z,12.20
2022-08-25T01:27:41.202Z,11.50
2022-08-25T01:28:15.170Z,11.40
2022-08-25T01:29:09.117Z,12.00
2022-08-25T01:29:42.888Z,10.60
2022-08-25T01:30:16.261Z,12.90
2022-08-25T01:30:50.399Z,11.30
2022-08-25T01:31:24.451Z,10.70
2022-08-25T01:32:04.857Z,11.50
2022-08-25T01:32:38.144Z,13.10
2022-08-25T01:33:13.108Z,11.50
2022-08-25T01:33:46.340Z,11.40
2022-08-25T01:34:20.493Z,12.30
2022-08-25T01:34:53.664Z,11.20
2022-08-25T01:35:27.145Z,12.30
2022-08-25T01:36:00.396Z,13.20
2022-08-25T01:36:35.931Z,12.10
2022-08-25T01:37:12.083Z,14.20
2022-08-25T01:37:46.912Z,12.60
2022-08-25T01:38:21.306Z,12.50
2022-08-25T01:38:56.909Z,13.00
2022-08-25T01:39:34.128Z,13.80
2022-08-25T01:40:07.919Z,14.00
2022-08-25T01:40:43.185Z,12.70
2022-08-25T01:41:45.040Z,11.10
2022-08-25T01:43:00.384Z,11.50
2022-08-25T01:43:39.150Z,10.20
2022-08-25T01:44:16.157Z,10.00
2022-08-25T01:44:50.069Z,10.90
2022-08-25T01:45:23.473Z,9.80
2022-08-25T01:45:58.290Z,9.70
2022-08-25T01:46:32.861Z,9.50
2022-08-25T01:47:07.830Z,9.70
2022-08-25T01:47:41.408Z,10.00
2022-08-25T01:48:16.439Z,8.90
2022-08-25T01:48:49.727Z,8.40
2022-08-25T01:49:23.339Z,9.70
2022-08-25T01:49:56.794Z,8.90
2022-08-25T01:50:30.148Z,9.50
2022-08-25T01:51:03.302Z,9.70
2022-08-25T01:51:56.013Z,9.60
2022-08-25T01:52:35.218Z,9.60
2022-08-25T01:53:12.356Z,9.00
2022-08-25T01:53:45.565Z,8.10
2022-08-25T01:54:18.941Z,8.40
2022-08-25T01:54:52.169Z,8.70
2022-08-25T01:55:25.913Z,8.80
2022-08-25T01:56:06.509Z,9.00
2022-08-25T01:56:43.691Z,8.90
2022-08-25T01:57:16.900Z,9.90
2022-08-25T01:57:50.100Z,9.40
2022-08-25T01:58:26.715Z,9.70
2022-08-25T01:58:59.819Z,10.20
2022-08-25T01:59:33.429Z,9.50
2022-08-25T02:00:09.522Z,9.00
2022-08-25T02:00:46.764Z,8.60
2022-08-25T02:01:23.060Z,8.90
2022-08-25T02:01:59.730Z,9.20
2022-08-25T02:02:33.459Z,7.90
2022-08-25T02:03:08.474Z,7.60
2022-08-25T02:03:54.840Z,8.10
2022-08-25T02:04:32.536Z,8.70
2022-08-25T02:05:06.555Z,7.20
2022-08-25T02:05:39.701Z,8.00
2022-08-25T02:06:14.819Z,8.80
2022-08-25T02:06:47.846Z,8.70
2022-08-25T02:07:21.159Z,9.20
2022-08-25T02:07:54.975Z,9.80
2022-08-25T02:08:28.155Z,8.60
2022-08-25T02:09:12.106Z,9.80
2022-08-25T02:09:45.455Z,9.80
2022-08-25T02:10:19.133Z,10.30
2022-08-25T02:10:54.206Z,10.10
2022-08-25T02:11:28.624Z,10.10
2022-08-25T02:12:01.878Z,11.60
2022-08-25T02:12:37.201Z,11.90
2022-08-25T02:13:11.320Z,9.90
2022-08-25T02:13:47.911Z,11.90
2022-08-25T02:14:21.211Z,13.10
2022-08-25T02:14:54.343Z,12.10
2022-08-25T02:15:27.966Z,12.30
2022-08-25T02:16:02.473Z,11.30
2022-08-25T02:16:39.045Z,12.60
2022-08-25T02:17:12.451Z,11.50
2022-08-25T02:17:45.577Z,11.30
2022-08-25T02:18:19.979Z,11.00
2022-08-25T02:18:53.455Z,9.50
2022-08-25T02:19:26.800Z,10.50
2022-08-25T02:19:59.956Z,10.50
2022-08-25T02:20:33.107Z,10.40
2022-08-25T02:21:06.350Z,10.50
2022-08-25T02:21:40.286Z,9.30
2022-08-25T02:22:13.342Z,8.90
2022-08-25T02:22:53.077Z,8.40
2022-08-25T02:23:30.368Z,8.90
2022-08-25T02:24:04.595Z,8.50
2022-08-25T02:24:38.090Z,9.30
2022-08-25T02:25:11.751Z,9.50
2022-08-25T02:25:44.860Z,10.60
2022-08-25T02:26:20.180Z,8.80
2022-08-25T02:26:53.582Z,8.80
2022-08-25T02:27:26.795Z,9.30
2022-08-25T02:28:01.072Z,9.80
2022-08-25T02:28:34.819Z,9.50
2022-08-25T02:29:08.697Z,9.60
2022-08-25T02:29:42.136Z,11.40
2022-08-25T02:30:17.273Z,9.40
2022-08-25T02:30:53.318Z,10.30
2022-08-25T02:31:34.297Z,9.20
2022-08-25T02:32:08.274Z,9.90
2022-08-25T02:32:42.171Z,9.90
2022-08-25T02:33:15.463Z,10.50
2022-08-25T02:33:49.755Z,11.10
2022-08-25T02:34:24.261Z,10.20
2022-08-25T02:34:57.226Z,11.20
2022-08-25T02:35:31.351Z,10.10
2022-08-25T02:36:05.362Z,11.40
2022-08-25T02:36:40.473Z,11.20
2022-08-25T02:37:14.468Z,11.10
2022-08-25T02:37:47.915Z,11.60
2022-08-25T02:38:21.125Z,11.40
2022-08-25T02:38:54.716Z,12.00
2022-08-25T02:39:28.017Z,11.80
2022-08-25T02:40:01.726Z,11.50
2022-08-25T02:40:35.480Z,10.70
2022-08-25T02:41:12.995Z,10.40
2022-08-25T02:41:46.309Z,13.70
2022-08-25T02:42:19.545Z,12.50
2022-08-25T02:42:53.876Z,10.60
2022-08-25T02:43:28.312Z,10.70
2022-08-25T02:44:03.914Z,9.90
2022-08-25T02:44:37.385Z,9.70
2022-08-25T02:45:10.989Z,9.70
2022-08-25T02:45:44.248Z,9.70
2022-08-25T02:46:20.268Z,10.00
2022-08-25T02:46:53.401Z,9.90
2022-08-25T02:47:27.028Z,10.40
2022-08-25T02:48:00.649Z,9.90
2022-08-25T02:48:34.185Z,9.40
2022-08-25T02:49:09.356Z,9.30
2022-08-25T02:49:42.853Z,10.80
2022-08-25T02:50:16.542Z,9.80
2022-08-25T02:50:52.803Z,9.30
2022-08-25T02:51:30.360Z,8.60
2022-08-25T02:52:04.014Z,9.40
2022-08-25T02:52:38.560Z,9.40
2022-08-25T02:53:11.782Z,8.70
2022-08-25T02:53:47.197Z,9.50
2022-08-25T02:54:20.578Z,9.80
2022-08-25T02:54:55.792Z,10.80
2022-08-25T02:55:29.027Z,10.10
2022-08-25T02:56:02.479Z,11.80
2022-08-25T02:56:35.645Z,13.00
2022-08-25T02:57:08.872Z,12.80
2022-08-25T02:57:42.759Z,13.10
2022-08-25T02:58:16.158Z,14.30
2022-08-25T02:58:49.413Z,15.40
2022-08-25T02:59:22.624Z,16.80
2022-08-25T02:59:55.710Z,16.10
2022-08-25T03:00:28.983Z,12.20
2022-08-25T03:01:02.263Z,12.20
2022-08-25T03:01:35.614Z,12.10
2022-08-25T03:02:08.765Z,11.30
2022-08-25T03:02:43.224Z,9.60
2022-08-25T03:03:16.877Z,9.60
2022-08-25T03:03:52.676Z,10.80
2022-08-25T03:04:25.899Z,9.50
2022-08-25T03:04:59.290Z,10.10
2022-08-25T03:05:33.317Z,8.80
2022-08-25T03:06:13.002Z,9.10
2022-08-25T03:06:46.531Z,9.20
2022-08-25T03:07:22.399Z,10.30
2022-08-25T03:07:58.076Z,9.50
2022-08-25T03:08:31.349Z,9.40
2022-08-25T03:09:04.954Z,9.00
2022-08-25T03:09:38.409Z,9.50
2022-08-25T03:10:16.469Z,9.10
2022-08-25T03:10:49.681Z,9.40
2022-08-25T03:11:26.797Z,10.10
2022-08-25T03:12:00.104Z,9.10
2022-08-25T03:12:33.815Z,10.70
2022-08-25T03:13:07.167Z,9.50
2022-08-25T03:13:40.905Z,9.90
2022-08-25T03:14:14.253Z,9.50
2022-08-25T03:14:47.536Z,10.40
2022-08-25T03:15:21.287Z,10.20
2022-08-25T03:15:54.794Z,10.40
2022-08-25T03:16:29.732Z,10.40
2022-08-25T03:17:03.097Z,10.20
2022-08-25T03:17:45.596Z,9.70
2022-08-25T03:18:19.344Z,8.20
2022-08-25T03:18:52.437Z,9.20
2022-08-25T03:19:25.568Z,8.40
2022-08-25T03:19:59.000Z,9.00
2022-08-25T03:20:33.896Z,9.20
2022-08-25T03:21:07.497Z,9.50
2022-08-25T03:21:40.707Z,8.40
2022-08-25T03:22:13.887Z,8.00
2022-08-25T03:22:47.207Z,8.20
2022-08-25T03:23:21.087Z,8.50
2022-08-25T03:23:54.216Z,9.50
2022-08-25T03:24:28.490Z,7.80
2022-08-25T03:25:23.993Z,9.80
2022-08-25T03:26:16.175Z,8.50
2022-08-25T03:26:56.344Z,8.00
2022-08-25T03:27:30.738Z,9.50
2022-08-25T03:28:05.121Z,8.80
2022-08-25T03:28:39.186Z,8.90
2022-08-25T03:29:13.830Z,8.60
2022-08-25T03:29:47.400Z,8.20
2022-08-25T03:30:21.157Z,8.80
2022-08-25T03:30:55.877Z,9.50
2022-08-25T03:31:29.504Z,8.70
2022-08-25T03:32:03.168Z,9.00
2022-08-25T03:32:36.681Z,8.30
2022-08-25T03:33:10.433Z,8.80
2022-08-25T03:33:43.771Z,9.10
2022-08-25T03:34:18.551Z,9.80
2022-08-25T03:34:51.933Z,9.60
2022-08-25T03:35:25.229Z,8.50
2022-08-25T03:35:59.540Z,8.70
2022-08-25T03:36:32.738Z,9.10
2022-08-25T03:37:08.785Z,10.20
2022-08-25T03:37:42.040Z,10.10
2022-08-25T03:38:17.304Z,10.00
2022-08-25T03:38:51.345Z,9.20
2022-08-25T03:39:26.386Z,9.80
2022-08-25T03:40:00.255Z,10.90
2022-08-25T03:40:33.549Z,10.30
2022-08-25T03:41:16.016Z,11.10
2022-08-25T03:41:49.874Z,10.60
2022-08-25T03:42:23.190Z,9.80
2022-08-25T03:42:57.189Z,11.50
2022-08-25T03:43:30.385Z,10.40
2022-08-25T03:44:05.573Z,10.40
2022-08-25T03:44:38.689Z,10.50
2022-08-25T03:45:14.244Z,10.10
2022-08-25T03:45:48.191Z,10.60
2022-08-25T03:46:33.140Z,10.10
2022-08-25T03:47:06.642Z,9.70
2022-08-25T03:47:41.043Z,10.70
2022-08-25T03:48:15.668Z,10.20
2022-08-25T03:48:49.897Z,10.80
2022-08-25T03:49:24.659Z,10.30
2022-08-25T03:49:58.232Z,10.60
2022-08-25T03:50:31.890Z,11.30
2022-08-25T03:51:05.625Z,11.90
2022-08-25T03:51:43.779Z,13.20
2022-08-25T03:52:18.570Z,11.90
2022-08-25T03:52:57.364Z,12.10
2022-08-25T03:53:30.461Z,12.00
2022-08-25T03:54:05.532Z,12.60
2022-08-25T03:54:38.894Z,13.10
2022-08-25T03:55:14.903Z,11.00
2022-08-25T03:55:48.723Z,10.90
2022-08-25T03:56:22.044Z,11.90
2022-08-25T03:56:55.927Z,11.60
2022-08-25T03:57:29.324Z,13.30
2022-08-25T03:58:02.641Z,12.00
2022-08-25T03:58:35.739Z,12.20
2022-08-25T03:59:10.358Z,12.50
2022-08-25T03:59:43.686Z,13.40
2022-08-25T04:00:17.681Z,15.00
2022-08-25T04:00:51.002Z,14.10
2022-08-25T04:01:24.778Z,15.90
2022-08-25T04:01:58.294Z,14.40
2022-08-25T04:02:34.050Z,15.80
2022-08-25T04:03:07.302Z,15.70
2022-08-25T04:03:40.616Z,16.70
2022-08-25T04:04:15.705Z,17.70
2022-08-25T04:04:48.993Z,16.90
2022-08-25T04:05:22.555Z,19.00
2022-08-25T04:06:05.133Z,17.60
2022-08-25T04:06:43.726Z,18.90
2022-08-25T04:07:17.431Z,18.10
2022-08-25T04:07:50.656Z,18.50
2022-08-25T04:08:23.975Z,18.80
2022-08-25T04:08:58.979Z,19.30
2022-08-25T04:09:35.229Z,21.00
2022-08-25T04:10:11.334Z,21.40
2022-08-25T04:10:44.766Z,23.30
2022-08-25T04:11:21.335Z,23.30
2022-08-25T04:11:54.743Z,25.20
2022-08-25T04:12:27.945Z,24.20
2022-08-25T04:13:02.067Z,26.90
2022-08-25T04:13:36.439Z,26.80
2022-08-25T04:14:10.121Z,27.80
2022-08-25T04:14:49.421Z,26.40
2022-08-25T04:15:22.585Z,25.10
2022-08-25T04:15:55.736Z,26.80
2022-08-25T04:16:34.136Z,25.90
2022-08-25T04:17:08.687Z,27.00
2022-08-25T04:17:42.613Z,25.10
2022-08-25T04:18:16.660Z,22.50
2022-08-25T04:18:51.195Z,22.90
2022-08-25T04:19:24.426Z,21.80
2022-08-25T04:19:57.584Z,20.00
2022-08-25T04:20:30.741Z,20.70
2022-08-25T04:21:06.343Z,18.50
2022-08-25T04:21:40.934Z,18.70
2022-08-25T04:22:13.949Z,18.10
2022-08-25T04:22:47.200Z,17.40
2022-08-25T04:23:20.841Z,17.60
2022-08-25T04:23:55.600Z,15.60
2022-08-25T04:24:29.036Z,16.60
2022-08-25T04:25:02.652Z,14.50
2022-08-25T04:25:42.422Z,14.10
2022-08-25T04:26:37.475Z,13.00
2022-08-25T04:27:10.612Z,11.90
2022-08-25T04:27:43.684Z,11.30
2022-08-25T04:28:16.798Z,12.10
2022-08-25T04:28:51.095Z,10.70
2022-08-25T04:29:26.231Z,10.90
2022-08-25T04:29:59.683Z,10.90
2022-08-25T04:30:32.861Z,11.10
2022-08-25T04:31:10.237Z,12.20
2022-08-25T04:31:48.690Z,11.70
2022-08-25T04:32:22.813Z,13.10
2022-08-25T04:32:55.986Z,15.00
2022-08-25T04:33:29.930Z,14.60
2022-08-25T04:34:13.435Z,15.00
2022-08-25T04:34:59.296Z,14.90
2022-08-25T04:35:32.576Z,13.00
2022-08-25T04:36:11.892Z,13.10
2022-08-25T04:36:45.801Z,11.90
2022-08-25T04:37:25.904Z,11.30
2022-08-25T04:37:59.886Z,11.00
2022-08-25T04:38:33.844Z,10.80
2022-08-25T04:39:07.727Z,12.10
2022-08-25T04:39:41.559Z,13.00
2022-08-25T04:40:15.075Z,13.10
2022-08-25T04:40:56.874Z,11.70
2022-08-25T04:41:31.622Z,10.40
2022-08-25T04:42:05.563Z,10.20
2022-08-25T04:42:39.086Z,9.60
2022-08-25T04:43:12.744Z,8.50
2022-08-25T04:43:46.434Z,9.40
2022-08-25T04:44:19.802Z,8.00
2022-08-25T04:44:52.920Z,7.20
2022-08-25T04:45:26.194Z,6.00
2022-08-25T04:46:00.595Z,6.90
2022-08-25T04:46:34.987Z,7.20
2022-08-25T04:47:08.085Z,6.60
2022-08-25T04:47:41.245Z,7.00
2022-08-25T04:48:14.314Z,6.60
2022-08-25T04:48:49.408Z,6.80
2022-08-25T04:49:22.559Z,6.20
2022-08-25T04:49:55.680Z,6.00
2022-08-25T04:50:28.871Z,6.00
2022-08-25T04:51:10.494Z,6.20
2022-08-25T04:51:44.529Z,6.20
2022-08-25T04:52:17.865Z,6.20
2022-08-25T04:52:51.058Z,6.20
2022-08-25T04:53:24.254Z,6.40
2022-08-25T04:54:05.850Z,6.90
2022-08-25T04:54:38.989Z,6.00
2022-08-25T04:55:12.121Z,6.80
2022-08-25T04:55:48.060Z,6.70
2022-08-25T04:56:25.408Z,6.50
2022-08-25T04:56:59.015Z,7.20
2022-08-25T04:57:32.823Z,6.80
2022-08-25T04:58:07.045Z,7.70
2022-08-25T04:58:48.204Z,8.00
2022-08-25T04:59:21.687Z,8.80
2022-08-25T04:59:55.829Z,8.40
2022-08-25T05:00:29.315Z,9.60
2022-08-25T05:01:24.407Z,8.70
2022-08-25T05:02:02.870Z,8.20
2022-08-25T05:02:36.411Z,8.80
2022-08-25T05:03:10.112Z,8.40
2022-08-25T05:03:44.596Z,8.20
2022-08-25T05:04:27.727Z,9.50
2022-08-25T05:05:04.511Z,10.00
2022-08-25T05:05:38.375Z,11.10
2022-08-25T05:06:15.837Z,9.80
2022-08-25T05:06:49.684Z,10.70
2022-08-25T05:07:23.172Z,9.40
2022-08-25T05:07:56.893Z,10.10
2022-08-25T05:08:30.162Z,10.20
2022-08-25T05:09:05.402Z,10.70
2022-08-25T05:09:38.725Z,11.40
2022-08-25T05:10:12.285Z,9.90
2022-08-25T05:10:45.395Z,10.40
2022-08-25T05:11:19.847Z,10.30
2022-08-25T05:11:56.885Z,10.20
2022-08-25T05:12:30.729Z,9.10
2022-08-25T05:13:06.376Z,10.80
2022-08-25T05:13:41.404Z,9.20
2022-08-25T05:14:18.527Z,9.20
2022-08-25T05:14:55.104Z,9.30
2022-08-25T05:15:47.072Z,8.50
2022-08-25T05:16:26.338Z,8.90
2022-08-25T05:17:00.096Z,9.30
2022-08-25T05:17:33.330Z,9.50
2022-08-25T05:18:07.543Z,9.30
2022-08-25T05:18:41.555Z,8.90
2022-08-25T05:19:15.075Z,8.90
2022-08-25T05:19:48.246Z,9.40
2022-08-25T05:20:21.511Z,8.50
2022-08-25T05:20:56.373Z,8.80
2022-08-25T05:21:29.589Z,9.20
2022-08-25T05:22:02.697Z,9.50
2022-08-25T05:22:35.918Z,8.30
2022-08-25T05:23:09.144Z,8.50
2022-08-25T05:23:43.746Z,9.30
2022-08-25T05:24:16.920Z,9.40
2022-08-25T05:24:51.350Z,8.90
2022-08-25T05:25:24.816Z,8.50
2022-08-25T05:26:05.203Z,8.20
2022-08-25T05:26:38.607Z,8.60
2022-08-25T05:27:12.302Z,8.70
2022-08-25T05:27:45.478Z,9.10
2022-08-25T05:28:20.664Z,7.50
2022-08-25T05:28:55.454Z,6.70
2022-08-25T05:29:28.796Z,7.50
2022-08-25T05:30:02.057Z,6.00
2022-08-25T05:30:39.554Z,6.10
2022-08-25T05:31:14.908Z,5.50
2022-08-25T05:31:50.553Z,5.60
2022-08-25T05:32:24.710Z,5.60
2022-08-25T05:32:57.930Z,5.80
2022-08-25T05:33:32.709Z,6.30
2022-08-25T05:34:08.434Z,6.00
2022-08-25T05:34:41.545Z,6.10
2022-08-25T05:35:16.366Z,7.40
2022-08-25T05:35:49.492Z,7.30
2022-08-25T05:36:27.043Z,7.30
2022-08-25T05:37:03.665Z,7.60
2022-08-25T05:37:38.294Z,7.00
2022-08-25T05:38:15.344Z,6.90
2022-08-25T05:38:49.629Z,7.50
2022-08-25T05:39:22.808Z,7.60
2022-08-25T05:39:57.149Z,7.50
2022-08-25T05:40:31.104Z,7.10
2022-08-25T05:41:10.746Z,7.10
2022-08-25T05:41:44.435Z,8.20
2022-08-25T05:42:18.039Z,8.50
2022-08-25T05:42:51.621Z,9.70
2022-08-25T05:43:27.049Z,10.90
2022-08-25T05:44:00.405Z,10.30
2022-08-25T05:44:34.343Z,10.60
2022-08-25T05:45:08.465Z,9.40
2022-08-25T05:45:42.124Z,9.60
2022-08-25T05:46:16.676Z,9.00
2022-08-25T05:46:50.844Z,9.80
2022-08-25T05:47:24.345Z,9.70
2022-08-25T05:47:58.437Z,9.20
2022-08-25T05:48:31.619Z,9.40
2022-08-25T05:49:04.763Z,9.60
2022-08-25T05:49:37.981Z,9.50
2022-08-25T05:50:11.593Z,9.90
2022-08-25T05:50:52.515Z,10.70
2022-08-25T05:51:26.939Z,11.20
2022-08-25T05:52:00.191Z,10.90
2022-08-25T05:52:33.409Z,11.30
2022-08-25T05:53:06.787Z,13.10
2022-08-25T05:53:43.328Z,12.00
2022-08-25T05:54:16.677Z,11.70
2022-08-25T05:54:49.708Z,12.70
2022-08-25T05:55:22.853Z,11.30
2022-08-25T05:55:58.447Z,10.30
2022-08-25T05:56:31.724Z,10.40
2022-08-25T05:57:05.202Z,10.00
2022-08-25T05:57:38.806Z,8.80
2022-08-25T05:58:12.193Z,9.30
2022-08-25T05:58:47.935Z,10.20
2022-08-25T05:59:21.031Z,8.50
2022-08-25T05:59:54.198Z,9.90
2022-08-25T06:00:27.451Z,9.90
2022-08-25T06:01:21.450Z,9.30
2022-08-25T06:02:13.394Z,8.80
2022-08-25T06:02:48.790Z,8.40
2022-08-25T06:03:22.116Z,8.60
2022-08-25T06:03:55.461Z,8.90
2022-08-25T06:04:28.837Z,8.90
2022-08-25T06:05:02.370Z,9.00
2022-08-25T06:05:35.623Z,8.30
2022-08-25T06:06:09.329Z,9.10
2022-08-25T06:06:42.852Z,8.20
2022-08-25T06:07:16.242Z,9.60
2022-08-25T06:07:51.276Z,8.80
2022-08-25T06:08:24.485Z,8.10
2022-08-25T06:08:57.790Z,8.10
2022-08-25T06:09:31.070Z,8.70
2022-08-25T06:10:07.133Z,8.10
2022-08-25T06:10:40.429Z,7.80
2022-08-25T06:11:14.439Z,8.40
2022-08-25T06:11:52.844Z,7.70
2022-08-25T06:12:27.994Z,8.40
2022-08-25T06:13:01.178Z,8.50
2022-08-25T06:13:34.464Z,8.10
2022-08-25T06:14:09.288Z,8.20
2022-08-25T06:14:42.745Z,9.10
2022-08-25T06:15:22.218Z,8.30
2022-08-25T06:16:00.153Z,8.90
2022-08-25T06:16:33.603Z,8.50
2022-08-25T06:17:06.987Z,11.10
2022-08-25T06:17:43.304Z,12.90
2022-08-25T06:18:17.306Z,13.90
2022-08-25T06:18:50.924Z,13.60
2022-08-25T06:19:24.018Z,17.70
2022-08-25T06:19:57.657Z,17.00
2022-08-25T06:20:32.315Z,15.00
2022-08-25T06:21:14.602Z,13.70
2022-08-25T06:21:48.017Z,12.20
2022-08-25T06:22:22.051Z,10.20
2022-08-25T06:22:55.383Z,9.60
2022-08-25T06:23:28.705Z,16.30
2022-08-25T06:24:02.080Z,19.00
2022-08-25T06:24:35.526Z,24.30
2022-08-25T06:25:10.547Z,22.80
2022-08-25T06:25:50.392Z,19.80
2022-08-25T06:26:23.857Z,19.20
2022-08-25T06:26:58.188Z,19.90
2022-08-25T06:27:31.713Z,18.00
2022-08-25T06:28:05.119Z,20.80
2022-08-25T06:28:38.493Z,18.70
2022-08-25T06:29:14.344Z,18.00
2022-08-25T06:29:47.576Z,17.50
2022-08-25T06:30:24.584Z,13.30
2022-08-25T06:31:03.728Z,11.20
2022-08-25T06:31:36.942Z,14.40
2022-08-25T06:32:10.199Z,29.80
2022-08-25T06:32:45.351Z,34.20
2022-08-25T06:33:18.480Z,26.60
2022-08-25T06:33:52.593Z,22.20
2022-08-25T06:34:25.861Z,18.50
2022-08-25T06:34:59.538Z,14.30
2022-08-25T06:35:32.690Z,12.30
2022-08-25T06:36:09.049Z,11.30
2022-08-25T06:36:42.417Z,11.60
2022-08-25T06:37:15.633Z,12.80
2022-08-25T06:37:48.719Z,12.90
2022-08-25T06:38:22.365Z,13.40
2022-08-25T06:38:55.493Z,12.10
2022-08-25T06:39:29.383Z,12.70
2022-08-25T06:40:02.892Z,12.70
2022-08-25T06:40:36.404Z,11.20
2022-08-25T06:41:14.168Z,12.10
2022-08-25T06:41:51.734Z,12.00
2022-08-25T06:42:24.934Z,12.00
2022-08-25T06:42:58.073Z,11.40
2022-08-25T06:43:33.438Z,11.30
2022-08-25T06:44:06.577Z,10.50
2022-08-25T06:44:39.861Z,11.60
2022-08-25T06:45:13.031Z,10.60
2022-08-25T06:45:48.623Z,12.70
2022-08-25T06:46:35.927Z,11.90
2022-08-25T06:47:10.166Z,10.80
2022-08-25T06:47:45.621Z,12.20
2022-08-25T06:48:19.353Z,11.00
2022-08-25T06:48:53.161Z,11.20
2022-08-25T06:49:31.828Z,10.70
2022-08-25T06:50:07.944Z,11.40
2022-08-25T06:50:41.687Z,10.50
2022-08-25T06:51:18.412Z,11.00
2022-08-25T06:51:51.679Z,12.50
2022-08-25T06:52:29.225Z,11.00
2022-08-25T06:53:02.820Z,10.50
2022-08-25T06:53:36.775Z,10.00
2022-08-25T06:54:10.587Z,10.40
2022-08-25T06:54:43.822Z,10.60
2022-08-25T06:55:21.991Z,9.60
2022-08-25T06:56:02.270Z,9.60
2022-08-25T06:56:40.104Z,10.00
2022-08-25T06:57:13.860Z,9.50
2022-08-25T06:57:47.073Z,8.80
2022-08-25T06:58:20.209Z,9.00
2022-08-25T06:58:53.221Z,8.60
2022-08-25T06:59:32.156Z,9.70
2022-08-25T07:00:08.804Z,8.70
2022-08-25T07:00:42.016Z,8.90
2022-08-25T07:01:25.763Z,9.90
2022-08-25T07:01:59.820Z,9.30
2022-08-25T07:02:35.465Z,9.00
2022-08-25T07:03:08.642Z,9.40
2022-08-25T07:03:42.190Z,8.80
2022-08-25T07:04:15.523Z,9.70
2022-08-25T07:04:48.726Z,9.30
2022-08-25T07:05:33.619Z,8.40
2022-08-25T07:06:13.971Z,8.70
2022-08-25T07:06:48.401Z,9.00
2022-08-25T07:07:21.611Z,9.20
2022-08-25T07:07:55.383Z,9.00
2022-08-25T07:08:28.435Z,9.00
2022-08-25T07:09:04.864Z,8.50
2022-08-25T07:09:39.252Z,9.00
2022-08-25T07:10:13.801Z,9.40
2022-08-25T07:10:52.813Z,8.40
2022-08-25T07:11:26.776Z,9.80
2022-08-25T07:11:59.943Z,8.20
2022-08-25T07:12:33.052Z,9.00
2022-08-25T07:13:06.315Z,9.40
2022-08-25T07:13:39.454Z,9.30
2022-08-25T07:14:14.753Z,8.90
2022-08-25T07:15:03.610Z,9.50
2022-08-25T07:15:42.645Z,8.30
2022-08-25T07:16:20.979Z,8.70
2022-08-25T07:16:54.284Z,9.10
2022-08-25T07:17:27.651Z,8.50
2022-08-25T07:18:00.949Z,9.80
2022-08-25T07:18:35.693Z,9.70
2022-08-25T07:19:09.733Z,9.40
2022-08-25T07:19:48.044Z,10.30
2022-08-25T07:21:00.200Z,9.40
2022-08-25T07:21:37.488Z,11.00
2022-08-25T07:22:10.668Z,10.60
2022-08-25T07:22:43.920Z,10.20
2022-08-25T07:23:17.005Z,9.90
2022-08-25T07:23:50.156Z,10.30
2022-08-25T07:24:23.526Z,9.70
2022-08-25T07:24:56.630Z,9.30
2022-08-25T07:25:30.193Z,9.90
2022-08-25T07:26:36.415Z,9.20
2022-08-25T07:27:08.703Z,9.10
2022-08-25T07:27:42.329Z,10.10
2022-08-25T07:28:17.189Z,8.50
2022-08-25T07:28:50.984Z,8.80
2022-08-25T07:30:21.989Z,8.10
2022-08-25T07:30:56.714Z,8.80
2022-08-25T07:31:31.616Z,8.50
2022-08-25T07:32:06.884Z,8.50
2022-08-25T07:32:42.259Z,10.40
2022-08-25T07:33:16.287Z,9.90
2022-08-25T07:34:08.323Z,9.30
2022-08-25T07:35:01.256Z,8.70
2022-08-25T07:35:37.806Z,8.50
2022-08-25T07:36:11.111Z,8.00
2022-08-25T07:36:44.769Z,9.70
2022-08-25T07:37:27.498Z,9.50
2022-08-25T07:38:19.615Z,9.60
2022-08-25T07:38:54.109Z,8.60
2022-08-25T07:39:29.001Z,8.20
2022-08-25T07:40:04.738Z,7.90
2022-08-25T07:40:42.829Z,8.60
2022-08-25T07:41:16.345Z,9.10
2022-08-25T07:41:51.887Z,7.90
2022-08-25T07:42:27.818Z,9.20
2022-08-25T07:43:08.664Z,8.70
2022-08-25T07:43:41.973Z,9.30
2022-08-25T07:44:15.229Z,8.20
2022-08-25T07:44:48.574Z,8.40
2022-08-25T07:45:29.934Z,8.40
2022-08-25T07:46:07.151Z,8.70
2022-08-25T07:46:41.180Z,9.60
2022-08-25T07:47:16.327Z,9.00
2022-08-25T07:47:51.679Z,8.50